createdAt,value
2022-10-04T00:00:28.429Z,11.83
2022-10-04T00:03:09.534Z,10.20
2022-10-04T00:05:39.432Z,11.10
2022-10-04T00:08:32.548Z,11.80
2022-10-04T00:11:16.501Z,8.63
2022-10-04T00:13:57.695Z,13.43
2022-10-04T00:16:31.307Z,14.33
2022-10-04T00:19:28.694Z,11.60
2022-10-04T00:22:18.884Z,12.63
2022-10-04T00:25:27.683Z,9.77
2022-10-04T00:28:39.679Z,9.93
2022-10-04T00:31:14.864Z,9.20
2022-10-04T00:33:51.563Z,12.87
2022-10-04T00:36:53.875Z,11.33
2022-10-04T00:39:46.691Z,14.37
2022-10-04T00:42:47.846Z,12.53
2022-10-04T00:45:32.620Z,11.17
2022-10-04T00:48:43.605Z,9.87
2022-10-04T00:51:25.752Z,13.17
2022-10-04T00:54:04.700Z,8.70
2022-10-04T00:56:46.615Z,11.67
2022-10-04T00:59:31.592Z,11.77
2022-10-04T01:02:13.593Z,10.43
2022-10-04T01:04:46.547Z,10.07
2022-10-04T01:07:25.594Z,10.93
2022-10-04T01:10:03.407Z,10.40
2022-10-04T01:12:52.563Z,9.67
2022-10-04T01:15:32.526Z,11.97
2022-10-04T01:18:36.789Z,10.53
2022-10-04T01:21:08.678Z,9.70
2022-10-04T01:23:53.720Z,15.10
2022-10-04T01:26:42.768Z,10.77
2022-10-04T01:29:21.755Z,10.97
2022-10-04T01:31:52.441Z,9.50
2022-10-04T01:34:28.642Z,9.17
2022-10-04T01:36:59.598Z,10.60
2022-10-04T01:39:37.636Z,10.67
2022-10-04T01:42:11.842Z,10.43
2022-10-04T01:44:52.815Z,11.53
2022-10-04T01:47:25.786Z,11.13
2022-10-04T01:50:05.371Z,9.60
2022-10-04T01:52:41.386Z,11.57
2022-10-04T01:55:23.567Z,12.27
2022-10-04T01:57:56.634Z,14.60
2022-10-04T02:00:32.808Z,9.50
2022-10-04T02:03:05.701Z,11.23
2022-10-04T02:05:44.682Z,10.87
2022-10-04T02:08:18.718Z,11.10
2022-10-04T02:11:00.769Z,12.27
2022-10-04T02:13:43.258Z,11.07
2022-10-04T02:16:19.820Z,8.50
2022-10-04T02:18:50.886Z,11.23
2022-10-04T02:21:26.862Z,10.83
2022-10-04T02:23:55.739Z,8.10
2022-10-04T02:26:32.738Z,8.60
2022-10-04T02:29:01.363Z,11.33
2022-10-04T02:31:54.625Z,11.00
2022-10-04T02:34:26.404Z,8.93
2022-10-04T02:37:01.643Z,10.60
2022-10-04T02:39:34.122Z,10.30
2022-10-04T02:42:19.685Z,10.97
2022-10-04T02:44:53.452Z,9.73
2022-10-04T02:47:30.742Z,9.77
2022-10-04T02:50:02.060Z,13.20
2022-10-04T02:52:43.708Z,9.70
2022-10-04T02:55:19.850Z,10.50
2022-10-04T02:57:58.741Z,10.47
2022-10-04T03:00:29.169Z,8.73
2022-10-04T03:03:23.647Z,12.20
2022-10-04T03:06:03.406Z,9.27
2022-10-04T03:08:42.719Z,10.47
2022-10-04T03:11:35.753Z,10.17
2022-10-04T03:14:11.091Z,9.60
2022-10-04T03:16:48.702Z,13.13
2022-10-04T03:19:19.421Z,10.60
2022-10-04T03:21:56.855Z,10.70
2022-10-04T03:24:31.833Z,11.13
2022-10-04T03:27:10.772Z,9.37
2022-10-04T03:29:43.196Z,10.57
2022-10-04T03:32:20.747Z,8.40
2022-10-04T03:34:56.950Z,7.30
2022-10-04T03:37:35.001Z,11.10
2022-10-04T03:40:04.679Z,8.70
2022-10-04T03:42:44.685Z,13.13
2022-10-04T03:45:29.821Z,7.23
2022-10-04T03:48:14.767Z,7.20
2022-10-04T03:50:49.613Z,10.53
2022-10-04T03:53:40.784Z,9.47
2022-10-04T03:56:13.840Z,8.13
2022-10-04T03:58:48.828Z,8.77
2022-10-04T04:01:28.049Z,7.90
2022-10-04T04:04:09.783Z,9.87
2022-10-04T04:06:46.100Z,9.13
2022-10-04T04:09:29.905Z,7.90
2022-10-04T04:12:09.935Z,9.53
2022-10-04T04:14:47.743Z,7.97
2022-10-04T04:17:42.308Z,8.97
2022-10-04T04:20:32.874Z,10.37
2022-10-04T04:23:06.768Z,9.67
2022-10-04T04:25:45.883Z,9.77
2022-10-04T04:28:25.068Z,10.40
2022-10-04T04:31:05.763Z,11.23
2022-10-04T04:33:50.801Z,7.70
2022-10-04T04:36:29.910Z,7.97
2022-10-04T04:39:33.810Z,7.90
2022-10-04T04:42:06.066Z,6.43
2022-10-04T04:44:42.747Z,8.13
2022-10-04T04:47:21.420Z,8.77
2022-10-04T04:49:58.041Z,7.63
2022-10-04T04:52:28.994Z,12.53
2022-10-04T04:55:04.951Z,10.93
2022-10-04T04:57:34.978Z,10.23
2022-10-04T05:00:10.909Z,9.87
2022-10-04T05:02:40.027Z,8.60
2022-10-04T05:05:26.814Z,9.07
2022-10-04T05:08:13.055Z,8.53
2022-10-04T05:10:50.806Z,6.83
2022-10-04T05:13:26.228Z,7.27
2022-10-04T05:16:02.970Z,10.43
2022-10-04T05:18:33.343Z,8.90
2022-10-04T05:21:15.955Z,9.87
2022-10-04T05:23:44.725Z,6.37
2022-10-04T05:26:20.838Z,9.13
2022-10-04T05:28:49.330Z,8.93
2022-10-04T05:31:41.245Z,7.33
2022-10-04T05:34:21.146Z,7.23
2022-10-04T05:37:13.822Z,9.87
2022-10-04T05:39:48.352Z,7.60
2022-10-04T05:42:30.048Z,10.03
2022-10-04T05:45:00.099Z,8.40
2022-10-04T05:47:39.119Z,10.50
2022-10-04T05:50:08.089Z,8.23
2022-10-04T05:52:46.826Z,8.20
2022-10-04T05:55:26.726Z,8.13
2022-10-04T05:58:29.974Z,10.70
2022-10-04T06:01:18.564Z,7.27
2022-10-04T06:04:10.029Z,12.63
2022-10-04T06:06:45.721Z,7.27
2022-10-04T06:09:43.049Z,8.50
2022-10-04T06:12:30.310Z,10.43
2022-10-04T06:15:45.832Z,8.00
2022-10-04T06:18:40.072Z,7.63
2022-10-04T06:21:27.079Z,6.60
2022-10-04T06:29:34.851Z,8.43
2022-10-04T06:32:33.130Z,8.57
2022-10-04T06:35:39.950Z,8.27
2022-10-04T06:38:36.000Z,10.00
2022-10-04T06:41:32.791Z,8.07
2022-10-04T06:44:30.925Z,8.07
2022-10-04T06:47:13.928Z,8.07
2022-10-04T06:49:56.993Z,10.37
2022-10-04T06:52:47.484Z,7.20
2022-10-04T06:55:54.037Z,8.23
2022-10-04T06:59:17.510Z,9.03
2022-10-04T07:01:53.124Z,6.50
2022-10-04T07:05:06.987Z,5.03
2022-10-04T07:07:37.472Z,6.93
2022-10-04T07:10:35.875Z,6.97
2022-10-04T07:13:36.146Z,5.67
2022-10-04T07:16:16.013Z,7.63
2022-10-04T07:18:57.795Z,7.80
2022-10-04T07:21:46.608Z,6.37
2022-10-04T07:24:25.944Z,8.60
2022-10-04T07:27:02.912Z,8.30
2022-10-04T07:29:43.973Z,6.43
2022-10-04T07:32:35.168Z,9.10
2022-10-04T07:35:30.468Z,9.93
2022-10-04T07:38:15.963Z,6.60
2022-10-04T07:41:07.650Z,8.00
2022-10-04T07:43:56.933Z,7.77
2022-10-04T07:46:45.159Z,10.37
2022-10-04T07:49:22.938Z,8.90
2022-10-04T07:52:45.046Z,8.20
2022-10-04T07:55:32.676Z,8.37
2022-10-04T07:58:25.942Z,9.87
2022-10-04T08:01:00.376Z,9.33
2022-10-04T08:03:56.225Z,6.60
2022-10-04T08:06:38.801Z,9.37
2022-10-04T08:09:35.053Z,7.07
2022-10-04T08:12:12.978Z,7.20
2022-10-04T08:15:03.925Z,6.50
2022-10-04T08:17:44.790Z,9.40
2022-10-04T08:20:49.241Z,9.27
2022-10-04T08:23:35.766Z,7.63
2022-10-04T08:26:24.073Z,7.37
2022-10-04T08:29:19.324Z,7.70
2022-10-04T08:35:48.730Z,5.73
2022-10-04T08:38:45.046Z,7.23
2022-10-04T08:41:46.848Z,7.47
2022-10-04T08:45:05.410Z,8.43
2022-10-04T08:47:56.118Z,7.53
2022-10-04T08:51:03.163Z,7.60
2022-10-04T08:54:04.529Z,7.43
2022-10-04T08:57:05.018Z,5.93
2022-10-04T09:00:10.181Z,9.33
2022-10-04T09:03:37.289Z,7.70
2022-10-04T09:06:35.039Z,6.77
2022-10-04T09:09:40.011Z,8.60
2022-10-04T09:12:51.364Z,7.43
2022-10-04T09:15:36.733Z,6.77
2022-10-04T09:18:29.033Z,10.33
2022-10-04T09:21:03.474Z,7.37
2022-10-04T09:24:16.458Z,7.43
2022-10-04T09:26:47.582Z,12.13
2022-10-04T09:29:57.074Z,7.00
2022-10-04T09:33:10.926Z,9.00
2022-10-04T09:36:23.303Z,8.37
2022-10-04T09:39:36.353Z,5.53
2022-10-04T09:42:35.077Z,7.13
2022-10-04T09:45:32.654Z,5.67
2022-10-04T09:48:32.205Z,6.77
2022-10-04T09:51:49.229Z,7.33
2022-10-04T09:55:07.558Z,6.40
2022-10-04T09:57:56.744Z,7.30
2022-10-04T10:00:35.017Z,8.53
2022-10-04T10:03:48.219Z,6.33
2022-10-04T10:06:54.053Z,6.17
2022-10-04T10:09:49.891Z,5.67
2022-10-04T10:13:06.044Z,7.97
2022-10-04T10:15:50.556Z,5.80
2022-10-04T10:18:34.265Z,7.80
2022-10-04T10:21:21.210Z,7.13
2022-10-04T10:24:41.143Z,7.40
2022-10-04T10:27:29.228Z,5.33
2022-10-04T10:30:20.383Z,7.67
2022-10-04T10:37:02.103Z,7.40
2022-10-04T10:39:57.776Z,6.70
2022-10-04T10:42:45.181Z,7.67
2022-10-04T10:45:33.201Z,7.07
2022-10-04T10:48:11.637Z,5.03
2022-10-04T10:51:09.904Z,5.17
2022-10-04T10:54:23.144Z,6.00
2022-10-04T10:57:15.137Z,6.93
2022-10-04T11:00:27.292Z,5.43
2022-10-04T11:03:38.120Z,7.20
2022-10-04T11:06:48.349Z,5.37
2022-10-04T11:09:47.227Z,7.13
2022-10-04T11:12:58.862Z,6.27
2022-10-04T11:15:58.341Z,6.37
2022-10-04T11:18:54.646Z,8.33
2022-10-04T11:21:52.171Z,6.17
2022-10-04T11:25:14.501Z,6.37
2022-10-04T11:27:59.672Z,6.80
2022-10-04T11:30:39.879Z,4.60
2022-10-04T11:37:05.847Z,7.77
2022-10-04T11:40:10.249Z,5.10
2022-10-04T11:43:01.165Z,6.90
2022-10-04T11:46:02.171Z,6.43
2022-10-04T11:48:40.335Z,4.60
2022-10-04T11:51:51.112Z,6.23
2022-10-04T11:55:04.939Z,6.67
2022-10-04T11:57:52.128Z,6.23
2022-10-04T12:00:22.653Z,5.90
2022-10-04T12:03:30.581Z,4.70
2022-10-04T12:06:22.928Z,4.87
2022-10-04T12:09:12.196Z,5.17
2022-10-04T12:12:16.559Z,5.37
2022-10-04T12:15:11.229Z,3.33
2022-10-04T12:18:11.839Z,6.27
2022-10-04T12:21:11.322Z,4.83
2022-10-04T12:23:57.818Z,5.93
2022-10-04T12:27:04.336Z,5.93
2022-10-04T12:30:07.488Z,5.70
2022-10-04T12:32:52.241Z,6.07
2022-10-04T12:35:32.065Z,8.03
2022-10-04T12:38:29.218Z,5.73
2022-10-04T12:41:10.978Z,4.83
2022-10-04T12:43:57.217Z,5.53
2022-10-04T12:46:36.305Z,5.20
2022-10-04T12:49:25.189Z,3.63
2022-10-04T12:52:06.147Z,4.27
2022-10-04T12:54:54.444Z,4.47
2022-10-04T12:57:39.459Z,6.27
2022-10-04T13:00:25.233Z,4.67
2022-10-04T13:03:09.564Z,4.83
2022-10-04T13:05:57.380Z,5.60
2022-10-04T13:08:37.917Z,4.70
2022-10-04T13:11:28.235Z,4.23
2022-10-04T13:14:22.372Z,4.20
2022-10-04T13:20:11.219Z,5.33
2022-10-04T13:22:58.187Z,4.03
2022-10-04T13:25:46.942Z,3.03
2022-10-04T13:28:31.261Z,3.57
2022-10-04T13:31:06.291Z,4.27
2022-10-04T13:33:50.238Z,4.97
2022-10-04T13:36:27.242Z,6.13
2022-10-04T13:39:24.328Z,6.07
2022-10-04T13:42:18.515Z,5.47
2022-10-04T13:45:09.230Z,5.57
2022-10-04T13:47:53.186Z,4.53
2022-10-04T13:50:43.455Z,5.13
2022-10-04T13:53:42.980Z,5.53
2022-10-04T13:56:47.442Z,3.93
2022-10-04T13:59:25.260Z,7.83
2022-10-04T14:02:33.457Z,4.70
2022-10-04T14:05:50.438Z,3.30
2022-10-04T14:08:56.244Z,4.93
2022-10-04T14:11:54.502Z,4.43
2022-10-04T14:15:11.394Z,4.47
2022-10-04T14:18:21.378Z,5.43
2022-10-04T14:21:39.341Z,3.73
2022-10-04T14:24:41.923Z,3.67
2022-10-04T14:27:50.429Z,4.13
2022-10-04T14:30:23.412Z,4.13
2022-10-04T14:33:34.437Z,3.90
2022-10-04T14:36:36.593Z,5.27
2022-10-04T14:39:42.460Z,7.07
2022-10-04T14:42:35.732Z,5.33
2022-10-04T14:45:44.393Z,5.13
2022-10-04T14:48:38.702Z,3.90
2022-10-04T14:51:58.544Z,7.77
2022-10-04T14:55:04.445Z,4.70
2022-10-04T14:58:02.506Z,5.80
2022-10-04T15:00:49.803Z,4.10
2022-10-04T15:03:47.395Z,5.20
2022-10-04T15:06:33.489Z,4.83
2022-10-04T15:09:26.099Z,4.17
2022-10-04T15:12:29.425Z,4.17
2022-10-04T15:15:22.140Z,5.80
2022-10-04T15:18:08.337Z,4.63
2022-10-04T15:20:52.207Z,4.03
2022-10-04T15:23:38.345Z,4.03
2022-10-04T15:26:28.407Z,4.53
2022-10-04T15:29:14.327Z,4.53
2022-10-04T15:32:04.526Z,5.13
2022-10-04T15:34:39.578Z,4.93
2022-10-04T15:37:32.525Z,3.57
2022-10-04T15:40:40.338Z,4.10
2022-10-04T15:43:23.799Z,6.47
2022-10-04T15:46:14.440Z,4.00
2022-10-04T15:48:56.268Z,4.77
2022-10-04T15:51:49.406Z,4.33
2022-10-04T15:55:26.520Z,3.00
2022-10-04T15:58:29.538Z,4.87
2022-10-04T16:01:20.020Z,7.63
2022-10-04T16:04:18.371Z,4.73
2022-10-04T16:06:54.208Z,4.40
2022-10-04T16:09:44.409Z,3.53
2022-10-04T16:12:29.165Z,6.33
2022-10-04T16:15:21.536Z,5.43
2022-10-04T16:18:05.591Z,5.57
2022-10-04T16:20:58.476Z,5.90
2022-10-04T16:23:35.077Z,4.33
2022-10-04T16:26:13.540Z,11.97
2022-10-04T16:29:05.251Z,14.03
2022-10-04T16:31:58.460Z,18.90
2022-10-04T16:34:47.180Z,4.53
2022-10-04T16:37:28.444Z,4.57
2022-10-04T16:40:00.558Z,5.10
2022-10-04T16:42:41.465Z,5.93
2022-10-04T16:45:41.772Z,4.00
2022-10-04T16:48:37.542Z,4.90
2022-10-04T16:51:43.228Z,7.23
2022-10-04T16:54:45.431Z,5.73
2022-10-04T16:57:28.956Z,5.17
2022-10-04T17:00:07.611Z,5.07
2022-10-04T17:03:03.717Z,4.93
2022-10-04T17:06:02.537Z,5.90
2022-10-04T17:08:51.951Z,4.07
2022-10-04T17:11:55.405Z,5.80
2022-10-04T17:14:52.716Z,4.13
2022-10-04T17:17:38.479Z,6.63
2022-10-04T17:20:17.843Z,4.90
2022-10-04T17:23:05.585Z,5.07
2022-10-04T17:25:43.395Z,3.80
2022-10-04T17:28:33.145Z,5.10
2022-10-04T17:31:10.997Z,4.73
2022-10-04T17:34:00.441Z,6.27
2022-10-04T17:36:40.359Z,6.67
2022-10-04T17:39:51.485Z,8.77
2022-10-04T17:42:33.150Z,11.10
2022-10-04T17:45:37.592Z,8.03
2022-10-04T17:48:32.601Z,5.33
2022-10-04T17:51:28.493Z,6.77
2022-10-04T17:54:19.579Z,6.47
2022-10-04T17:57:23.635Z,3.70
2022-10-04T17:59:59.754Z,4.90
2022-10-04T18:02:52.607Z,5.63
2022-10-04T18:05:26.851Z,4.73
2022-10-04T18:08:07.570Z,14.43
2022-10-04T18:10:39.298Z,10.63
2022-10-04T18:13:22.515Z,5.03
2022-10-04T18:15:54.967Z,5.30
2022-10-04T18:18:34.495Z,4.83
2022-10-04T18:21:23.009Z,6.30
2022-10-04T18:24:03.632Z,4.43
2022-10-04T18:26:34.730Z,5.40
2022-10-04T18:29:15.533Z,6.57
2022-10-04T18:31:44.437Z,4.50
2022-10-04T18:34:34.462Z,4.77
2022-10-04T18:37:22.258Z,5.20
2022-10-04T18:39:58.480Z,9.07
2022-10-04T18:42:30.935Z,5.87
2022-10-04T18:45:07.792Z,7.03
2022-10-04T18:47:38.767Z,6.97
2022-10-04T18:50:25.810Z,7.70
2022-10-04T18:53:27.685Z,6.80
2022-10-04T18:56:07.771Z,8.00
2022-10-04T18:59:10.597Z,5.47
2022-10-04T19:02:10.603Z,6.60
2022-10-04T19:04:48.942Z,5.97
2022-10-04T19:07:30.543Z,6.47
2022-10-04T19:10:17.969Z,5.83
2022-10-04T19:13:04.587Z,5.13
2022-10-04T19:15:44.543Z,6.13
2022-10-04T19:18:46.543Z,8.00
2022-10-04T19:21:31.779Z,6.17
2022-10-04T19:24:31.655Z,6.33
2022-10-04T19:27:12.574Z,6.57
2022-10-04T19:29:53.937Z,6.83
2022-10-04T19:32:37.675Z,7.30
2022-10-04T19:35:18.591Z,8.20
2022-10-04T19:37:59.632Z,7.27
2022-10-04T19:40:42.613Z,7.03
2022-10-04T19:43:18.172Z,8.07
2022-10-04T19:45:59.596Z,9.77
2022-10-04T19:48:31.244Z,8.20
2022-10-04T19:51:10.589Z,8.37
2022-10-04T19:53:44.368Z,8.83
2022-10-04T19:56:25.773Z,4.90
2022-10-04T19:59:09.360Z,5.80
2022-10-04T20:01:45.880Z,5.50
2022-10-04T20:04:34.293Z,7.13
2022-10-04T20:07:11.530Z,6.23
2022-10-04T20:10:00.599Z,5.93
2022-10-04T20:12:36.423Z,9.07
2022-10-04T20:15:50.659Z,4.73
2022-10-04T20:18:58.923Z,7.00
2022-10-04T20:21:37.772Z,7.60
2022-10-04T20:24:27.142Z,7.20
2022-10-04T20:27:07.690Z,5.90
2022-10-04T20:30:04.782Z,5.80
2022-10-04T20:33:04.987Z,8.67
2022-10-04T20:36:01.825Z,6.90
2022-10-04T20:39:07.611Z,6.60
2022-10-04T20:42:22.747Z,6.93
2022-10-04T20:45:03.708Z,6.83
2022-10-04T20:47:38.267Z,7.30
2022-10-04T20:50:39.696Z,6.17
2022-10-04T20:53:16.464Z,8.20
2022-10-04T20:56:03.819Z,6.50
2022-10-04T20:58:35.448Z,5.70
2022-10-04T21:01:23.754Z,7.53
2022-10-04T21:03:52.149Z,6.23
2022-10-04T21:06:28.672Z,8.57
2022-10-04T21:08:57.101Z,7.97
2022-10-04T21:11:31.658Z,7.47
2022-10-04T21:14:02.076Z,7.03
2022-10-04T21:16:53.493Z,8.90
2022-10-04T21:19:46.153Z,8.70
2022-10-04T21:22:49.762Z,7.07
2022-10-04T21:25:34.211Z,9.00
2022-10-04T21:28:45.835Z,6.77
2022-10-04T21:31:14.263Z,8.90
2022-10-04T21:33:49.883Z,8.37
2022-10-04T21:36:18.087Z,8.60
2022-10-04T21:38:54.687Z,7.90
2022-10-04T21:41:23.095Z,9.90
2022-10-04T21:43:57.705Z,7.80
2022-10-04T21:46:26.351Z,9.63
2022-10-04T21:49:01.665Z,7.93
2022-10-04T21:51:32.134Z,7.27
2022-10-04T21:54:08.695Z,7.30
2022-10-04T21:56:44.609Z,7.47
2022-10-04T21:59:19.699Z,8.93
2022-10-04T22:01:48.062Z,7.77
2022-10-04T22:04:22.906Z,10.03
2022-10-04T22:06:51.221Z,8.67
2022-10-04T22:09:27.694Z,7.60
2022-10-04T22:11:56.031Z,10.63
2022-10-04T22:14:30.933Z,8.00
2022-10-04T22:16:59.416Z,7.23
2022-10-04T22:19:34.731Z,7.33
2022-10-04T22:22:03.126Z,7.77
2022-10-04T22:24:39.797Z,6.73
2022-10-04T22:27:14.569Z,6.80
2022-10-04T22:29:49.728Z,7.10
2022-10-04T22:32:24.228Z,8.13
2022-10-04T22:34:59.721Z,7.77
2022-10-04T22:37:29.805Z,7.13
2022-10-04T22:40:05.765Z,8.77
2022-10-04T22:42:34.744Z,9.40
2022-10-04T22:45:09.751Z,9.17
2022-10-04T22:47:38.321Z,7.47
2022-10-04T22:50:31.917Z,7.60
2022-10-04T22:53:04.525Z,7.83
2022-10-04T22:55:41.746Z,7.43
2022-10-04T22:58:21.778Z,7.87
2022-10-04T23:00:57.831Z,10.17
2022-10-04T23:17:32.767Z,7.93
2022-10-04T23:20:11.764Z,11.70
2022-10-04T23:22:40.742Z,7.90
2022-10-04T23:25:22.059Z,8.07
2022-10-04T23:27:50.673Z,7.77
2022-10-04T23:30:27.982Z,8.53
2022-10-04T23:33:01.465Z,8.00
2022-10-04T23:35:40.976Z,9.57
2022-10-04T23:38:15.468Z,7.80
2022-10-04T23:40:50.984Z,10.40
2022-10-04T23:43:24.593Z,7.80
2022-10-04T23:45:59.870Z,8.67
2022-10-04T23:48:32.062Z,7.70
2022-10-04T23:51:08.169Z,8.23
2022-10-04T23:53:36.649Z,8.73
2022-10-04T23:56:15.810Z,8.77
2022-10-04T23:58:52.497Z,8.10
